Kezdőlap
METAR-TAF:

METAR-TAF

Repülőterek :

Owatonna Degner Regional Airport

Owatonna, Minnesota, Amerikai Egyesült Államok

földrajzi szélesség: 44-07N, földrajzi hosszúság: 093-15W, magasság: 350 m

Jelenlegi meteorológiai megfigyelések

A jelentés 24 perccel ezelõtt készült, 14:13 UTC
Kelet-északkeleti szél 10 kt
Hőmérséklet 19°C
Páratartalom 100%
Légköri nyomás 1020 hPa
Látótávolság: 16.1 km
Szórványos felhőzet 1100 lábon
Szakadozott felhőzet 7000 lábon
Borult 8000 lábon
zivatar, enyhe esõ

METAR: KOWA 281413Z AUTO 07010KT 10SM -TSRA SCT011 BKN070 OVC080 19/19 A3012 RMK AO2 LTG DSNT NE THRU S P0001

Idő: 09:37 (14:37 UTC)


TAF: hiányzik

Meteorológiai megfigyelések és előrejelzések több, mint 4000 repülőtéren (METAR és TAF jelentéseket).

A térképen piros és sárga pontok jelzik az elérhető meteorológiai állomásokat.

Mozgassa az egeret a pont fölött, hogy megjelenjen az állomás neve.

Azután kattintson az időjárási megfigyelések és előrejelzések megtekintéséhez.

A térkép megváltoztatása: kattintson a fekete keresztel jelölt zöld gombra ráközelítéshez, a vonallal jelölt zöld gombra távolításhoz, vagy a zöld nyilakra a szomszédos térképek eléréséhez.


METAR-TAF: